Time;durP1;ratioP1;P1;durP2;ratioP2;P2;SDS_P1;SDS_P2;PMS_P1;PMS_P2;Temp;Humidity;BMP_temperature;BMP_pressure;BME280_temperature;BME280_humidity;BME280_pressure;Samples;Min_cycle;Max_cycle;Signal;HPM_P1;HPM_P2
2022/01/10 00:00:08;;;;;;;13.90;3.60;;;;;;;10.68;46.99;100866.72;4957525;29;20035;-66
2022/01/10 00:02:33;;;;;;;9.18;3.90;;;;;;;10.65;47.18;100859.81;4957269;29;20106;-66
2022/01/10 00:04:58;;;;;;;10.77;3.30;;;;;;;10.64;47.10;100874.16;4958696;29;20392;-65
2022/01/10 00:07:24;;;;;;;6.22;3.92;;;;;;;10.64;47.04;100884.03;4958445;28;20027;-65
2022/01/10 00:09:49;;;;;;;15.57;5.30;;;;;;;10.63;47.47;100888.56;4958444;28;20535;-65
2022/01/10 00:12:14;;;;;;;6.55;3.85;;;;;;;10.63;47.02;100887.72;4958373;28;20035;-66
2022/01/10 00:14:40;;;;;;;12.25;4.32;;;;;;;10.61;47.12;100889.66;4957144;29;20039;-66
2022/01/10 00:17:05;;;;;;;14.82;4.05;;;;;;;10.58;47.04;100889.94;4958172;29;20031;-65
2022/01/10 00:19:31;;;;;;;8.93;3.55;;;;;;;10.56;46.89;100887.34;4958156;29;20039;-65
2022/01/10 00:21:56;;;;;;;8.35;3.67;;;;;;;10.55;47.07;100890.19;4958146;29;20038;-65
2022/01/10 00:24:22;;;;;;;16.73;3.95;;;;;;;10.53;47.50;100887.59;4958193;29;20027;-66
2022/01/10 00:26:48;;;;;;;12.68;4.68;;;;;;;10.53;47.07;100892.97;4956825;29;20023;-66
2022/01/10 00:29:13;;;;;;;13.30;4.22;;;;;;;10.53;47.04;100903.69;4957946;29;20035;-66
2022/01/10 00:31:38;;;;;;;11.82;4.13;;;;;;;10.54;47.01;100908.06;4957871;29;20399;-65
2022/01/10 00:34:04;;;;;;;14.00;3.85;;;;;;;10.55;47.29;100908.94;4956665;29;20057;-66
2022/01/10 00:36:29;;;;;;;10.75;4.38;;;;;;;10.56;47.30;100908.78;4956821;29;20110;-66
2022/01/10 00:38:54;;;;;;;10.02;4.30;;;;;;;10.57;47.13;100915.84;4957896;29;20039;-65
2022/01/10 00:41:20;;;;;;;15.55;4.00;;;;;;;10.59;47.16;100916.56;4957808;28;20114;-65
2022/01/10 00:43:46;;;;;;;12.38;3.80;;;;;;;10.61;47.17;100927.16;4957741;28;20038;-65
2022/01/10 00:46:12;;;;;;;12.15;3.78;;;;;;;10.61;46.94;100927.16;4958030;28;20039;-65
2022/01/10 00:48:38;;;;;;;9.93;3.28;;;;;;;10.59;46.99;100927.28;4956001;28;20058;-66
2022/01/10 00:51:03;;;;;;;11.25;3.83;;;;;;;10.58;47.05;100925.56;4956240;29;20496;-66
2022/01/10 00:53:29;;;;;;;11.90;3.50;;;;;;;10.56;47.22;100924.84;4956368;29;20506;-66
2022/01/10 00:55:54;;;;;;;11.07;4.90;;;;;;;10.55;46.82;100927.66;4956350;29;20031;-65
2022/01/10 00:58:20;;;;;;;7.90;3.53;;;;;;;10.53;47.04;100930.47;4957602;29;20392;-66
2022/01/10 01:00:45;;;;;;;11.20;3.65;;;;;;;10.50;46.62;100930.72;4940205;29;20396;-66
2022/01/10 01:03:11;;;;;;;11.00;3.65;;;;;;;10.50;47.01;100925.34;4957465;29;20031;-66
2022/01/10 01:05:41;;;;;;;10.25;3.38;;;;;;;10.50;47.15;100931.56;4956310;29;20480;-65
2022/01/10 01:08:08;;;;;;;15.20;3.42;;;;;;;10.51;46.96;100935.97;4957317;28;20074;-65
2022/01/10 01:16:10;;;;;;;13.93;3.60;;;;;;;10.55;46.86;100949.94;4957197;29;20498;-65
2022/01/10 01:24:07;;;;;;;11.05;3.30;;;;;;;10.56;47.19;100965.03;4957054;29;20038;-66
2022/01/10 01:26:38;;;;;;;8.35;3.55;;;;;;;10.55;46.99;100974.06;4956002;29;20392;-65
2022/01/10 01:29:05;;;;;;;16.17;3.63;;;;;;;10.52;47.46;100976.97;4956971;29;20035;-66
2022/01/10 01:31:31;;;;;;;13.52;3.33;;;;;;;10.49;47.24;100979.91;4955735;29;20074;-65
2022/01/10 01:33:56;;;;;;;16.00;4.10;;;;;;;10.48;47.37;100988.91;4939468;29;20536;-65
2022/01/10 01:36:24;;;;;;;5.15;2.50;;;;;;;10.45;46.87;100986.47;4956819;28;20393;-65
2022/01/10 01:38:50;;;;;;;16.67;3.17;;;;;;;10.41;46.91;100993.91;4956783;28;20034;-65
2022/01/10 01:43:48;;;;;;;7.13;3.67;;;;;;;10.36;47.31;101003.28;4956930;28;20039;-65
2022/01/10 01:46:14;;;;;;;9.93;3.40;;;;;;;10.33;47.23;100999.03;4956920;28;20464;-66
2022/01/10 01:48:39;;;;;;;14.88;2.60;;;;;;;10.31;47.11;101000.97;4956617;29;20058;-65
2022/01/10 01:51:05;;;;;;;8.80;2.97;;;;;;;10.31;46.81;101010.84;4956331;28;20062;-65
2022/01/10 01:53:31;;;;;;;7.32;2.42;;;;;;;10.31;47.04;101010.84;4956670;29;20038;-66
2022/01/10 01:55:59;;;;;;;13.85;3.42;;;;;;;10.33;47.60;101024.97;4939093;29;20023;-65
2022/01/10 01:58:25;;;;;;;18.45;3.53;;;;;;;10.33;47.28;101020.44;4956461;29;20042;-65
2022/01/10 02:00:51;;;;;;;9.27;2.97;;;;;;;10.34;47.64;101032.00;4955536;28;20374;-65
2022/01/10 02:03:16;;;;;;;18.50;4.00;;;;;;;10.35;47.51;101033.72;4956239;29;20042;-66
2022/01/10 02:05:42;;;;;;;9.60;3.50;;;;;;;10.36;47.44;101035.41;4923252;29;20023;-66
2022/01/10 02:08:11;;;;;;;4.20;2.60;;;;;;;10.35;47.61;101039.06;4956363;29;20389;-66
2022/01/10 02:10:37;;;;;;;8.50;3.45;;;;;;;10.36;47.57;101046.97;4938844;29;20031;-64
2022/01/10 02:13:03;;;;;;;10.15;3.40;;;;;;;10.36;47.10;101046.13;4956079;29;20444;-65
2022/01/10 02:15:41;;;;;;;8.05;3.83;;;;;;;10.37;47.43;101045.16;4938791;29;20031;-66
2022/01/10 02:18:07;;;;;;;12.65;4.35;;;;;;;10.36;47.80;101052.34;4956041;29;20031;-66
2022/01/10 02:20:33;;;;;;;10.65;4.30;;;;;;;10.36;47.75;101056.81;4938892;29;20039;-66
2022/01/10 02:22:59;;;;;;;15.10;3.80;;;;;;;10.34;47.25;101053.44;4955935;29;20196;-65
2022/01/10 02:25:25;;;;;;;15.10;3.80;;;;;;;10.33;47.36;101057.09;4955864;29;20027;-65
2022/01/10 02:27:50;;;;;;;15.85;3.78;;;;;;;10.29;47.19;101059.16;4955893;29;20043;-65
2022/01/10 02:30:16;;;;;;;13.00;3.60;;;;;;;10.26;47.28;101061.22;4938615;29;20027;-65
2022/01/10 02:32:41;;;;;;;15.15;4.65;;;;;;;10.22;47.47;101065.09;4955881;29;20035;-65
2022/01/10 02:35:20;;;;;;;9.32;3.70;;;;;;;10.20;47.06;101067.06;4938502;29;20102;-65
2022/01/10 02:37:46;;;;;;;12.73;4.53;;;;;;;10.17;47.51;101073.50;4955665;29;20558;-65
2022/01/10 02:40:14;;;;;;;13.38;4.25;;;;;;;10.15;47.37;101086.16;4955768;29;20502;-65
2022/01/10 02:42:39;;;;;;;14.77;5.20;;;;;;;10.11;47.25;101095.34;4955654;29;20028;-65
2022/01/10 02:45:05;;;;;;;19.02;5.82;;;;;;;10.05;47.56;101100.34;4955702;29;20038;-66
2022/01/10 02:47:31;;;;;;;17.38;6.15;;;;;;;10.02;47.24;101105.94;4955749;28;20031;-65
2022/01/10 02:49:56;;;;;;;17.25;6.53;;;;;;;10.01;47.84;101115.78;4955519;29;20106;-66
2022/01/10 02:52:22;;;;;;;16.83;7.55;;;;;;;10.00;47.70;101110.53;4955463;29;20051;-66
2022/01/10 02:54:47;;;;;;;21.45;6.97;;;;;;;9.99;47.59;101116.88;4955486;29;20114;-65
2022/01/10 02:57:12;;;;;;;22.20;8.38;;;;;;;10.00;47.49;101131.94;4955390;29;20035;-65
2022/01/10 02:59:39;;;;;;;18.33;6.75;;;;;;;10.00;47.47;101126.59;4955524;29;20031;-65
2022/01/10 03:02:06;;;;;;;21.13;7.78;;;;;;;10.00;47.20;101134.63;4955345;29;20048;-65
2022/01/10 03:04:32;;;;;;;26.15;7.25;;;;;;;10.00;47.72;101137.31;4955646;29;20051;-65
2022/01/10 03:06:58;;;;;;;37.97;7.03;;;;;;;9.98;47.54;101147.28;4955347;29;20440;-64
2022/01/10 03:09:24;;;;;;;23.67;6.85;;;;;;;9.93;47.17;101151.19;4955373;29;20055;-65
2022/01/10 03:11:49;;;;;;;41.58;9.45;;;;;;;9.87;47.64;101157.00;4955179;28;20484;-66
2022/01/10 03:14:14;;;;;;;27.38;7.70;;;;;;;9.84;47.41;101153.69;4938120;29;20032;-65
2022/01/10 03:16:40;;;;;;;32.47;8.73;;;;;;;9.77;47.78;101166.66;4955501;29;20457;-65
2022/01/10 03:19:05;;;;;;;19.77;7.30;;;;;;;9.72;48.24;101168.84;4955312;29;20396;-65
2022/01/10 03:21:31;;;;;;;28.85;6.78;;;;;;;9.72;47.81;101173.31;4955218;29;20031;-66
2022/01/10 03:23:59;;;;;;;27.40;7.90;;;;;;;9.69;47.75;101177.09;4955116;29;20031;-66
2022/01/10 03:26:26;;;;;;;20.25;7.28;;;;;;;9.65;48.07;101178.31;4955197;29;20477;-63
2022/01/10 03:28:52;;;;;;;25.20;7.10;;;;;;;9.64;47.90;101181.06;4955447;29;20038;-65
2022/01/10 03:31:18;;;;;;;27.00;8.35;;;;;;;9.62;47.69;101181.22;4937841;29;20480;-66
2022/01/10 03:33:44;;;;;;;27.35;7.30;;;;;;;9.61;48.22;101181.31;4938075;29;20385;-65
2022/01/10 03:36:09;;;;;;;43.47;8.88;;;;;;;9.58;48.15;101190.41;4955288;29;20032;-66
2022/01/10 03:38:34;;;;;;;22.42;6.93;;;;;;;9.56;48.25;101199.50;4954906;29;20034;-65
2022/01/10 03:41:00;;;;;;;34.80;8.68;;;;;;;9.55;47.94;101187.13;4937984;29;20123;-65
2022/01/10 03:43:25;;;;;;;24.63;8.00;;;;;;;9.55;48.34;101200.50;4954997;29;20424;-64
2022/01/10 03:45:51;;;;;;;36.88;6.85;;;;;;;9.55;48.43;101203.19;4955309;28;20082;-65
2022/01/10 03:48:16;;;;;;;27.25;7.13;;;;;;;9.55;48.15;101205.84;4937961;29;20467;-65
2022/01/10 03:50:42;;;;;;;20.15;7.15;;;;;;;9.56;48.45;101210.22;4954822;29;20035;-65
2022/01/10 03:53:07;;;;;;;40.53;7.75;;;;;;;9.58;48.78;101219.81;4954866;29;20031;-65
2022/01/10 03:55:33;;;;;;;22.48;7.07;;;;;;;9.61;47.60;101218.75;4955031;29;20038;-65
2022/01/10 03:57:58;;;;;;;19.23;6.32;;;;;;;9.62;48.17;101224.00;4954777;29;20034;-65
2022/01/10 04:00:23;;;;;;;23.27;6.80;;;;;;;9.64;48.35;101230.06;4954828;29;20491;-65
2022/01/10 04:03:03;;;;;;;29.55;7.72;;;;;;;9.63;48.14;101240.91;4937742;29;20036;-64
2022/01/10 04:05:29;;;;;;;19.23;7.38;;;;;;;9.62;48.07;101242.72;4955052;29;20031;-65
2022/01/10 04:07:54;;;;;;;36.13;8.00;;;;;;;9.65;48.50;101244.31;4954804;29;20046;-64
2022/01/10 04:10:19;;;;;;;29.60;8.52;;;;;;;9.68;48.71;101247.63;4954746;29;20057;-65
2022/01/10 04:12:45;;;;;;;38.60;6.63;;;;;;;9.70;48.77;101245.69;4954757;29;20453;-64
2022/01/10 04:15:10;;;;;;;28.23;7.72;;;;;;;9.74;48.55;101259.69;4954591;29;20090;-65
2022/01/10 04:17:36;;;;;;;27.88;8.25;;;;;;;9.76;48.10;101269.31;4954574;29;20081;-64
2022/01/10 04:20:03;;;;;;;28.73;7.20;;;;;;;9.76;48.82;101269.31;4954809;29;20085;-65
2022/01/10 04:22:29;;;;;;;25.85;8.10;;;;;;;9.80;48.36;101277.94;4954902;29;20055;-65
2022/01/10 04:24:54;;;;;;;26.20;6.60;;;;;;;9.82;48.62;101281.38;4956443;28;20034;-65
2022/01/10 04:27:19;;;;;;;26.70;7.90;;;;;;;9.83;48.65;101275.03;4958065;29;20487;-65
2022/01/10 04:29:45;;;;;;;20.50;6.20;;;;;;;9.81;47.95;101285.84;4958085;29;20399;-65
2022/01/10 04:32:12;;;;;;;17.42;5.30;;;;;;;9.81;48.20;101285.00;4958069;29;20031;-65
2022/01/10 04:34:38;;;;;;;13.70;5.45;;;;;;;9.79;48.38;101290.47;4958090;29;20380;-65
2022/01/10 04:37:03;;;;;;;20.20;5.53;;;;;;;9.78;48.60;101295.91;4957878;29;20035;-65
2022/01/10 04:39:28;;;;;;;16.70;6.07;;;;;;;9.77;48.57;101305.75;4957951;29;20031;-65
2022/01/10 04:41:54;;;;;;;15.73;5.53;;;;;;;9.71;47.55;101311.59;4957830;29;20116;-65
2022/01/10 04:44:19;;;;;;;33.97;6.63;;;;;;;9.70;48.72;101311.69;4957754;29;20031;-64
2022/01/10 04:46:45;;;;;;;30.88;6.47;;;;;;;9.64;48.11;101310.31;4957462;28;20407;-66
2022/01/10 04:49:18;;;;;;;33.17;6.43;;;;;;;9.61;48.68;101321.22;4957725;29;20090;-65
2022/01/10 04:51:44;;;;;;;34.22;6.80;;;;;;;9.60;48.36;101329.38;4957600;29;20508;-65
2022/01/10 04:54:09;;;;;;;13.63;5.80;;;;;;;9.61;48.06;101336.41;4940565;29;20037;-65
2022/01/10 04:56:35;;;;;;;21.25;7.20;;;;;;;9.65;48.77;101336.09;4957595;29;20090;-66
2022/01/10 04:59:01;;;;;;;26.00;6.93;;;;;;;9.71;48.61;101345.50;4957422;29;20050;-65
2022/01/10 05:01:26;;;;;;;20.10;6.45;;;;;;;9.75;48.71;101352.31;4957725;29;20063;-65
2022/01/10 05:03:52;;;;;;;17.17;6.60;;;;;;;9.79;48.44;101352.00;4957467;29;20086;-65
2022/01/10 05:06:17;;;;;;;17.30;6.07;;;;;;;9.80;48.68;101353.69;4957432;29;20526;-65
2022/01/10 05:08:43;;;;;;;18.05;5.35;;;;;;;9.82;49.23;101365.16;4940274;29;20507;-65
2022/01/10 05:11:08;;;;;;;22.55;6.88;;;;;;;9.84;48.78;101371.25;4957299;29;20027;-64
2022/01/10 05:13:34;;;;;;;30.73;6.10;;;;;;;9.86;48.89;101361.28;4940024;29;20043;-65
2022/01/10 05:15:59;;;;;;;28.77;7.20;;;;;;;9.86;48.81;101371.97;4957316;29;20023;-65
2022/01/10 05:18:25;;;;;;;22.00;6.72;;;;;;;9.85;48.47;101383.63;4957144;29;20031;-64
2022/01/10 05:20:51;;;;;;;16.77;6.20;;;;;;;9.85;48.45;101383.63;4957379;29;20035;-66
2022/01/10 05:23:17;;;;;;;24.17;6.60;;;;;;;9.87;48.51;101392.44;4957127;29;20154;-66
2022/01/10 05:25:42;;;;;;;41.38;8.02;;;;;;;9.87;48.94;101396.94;4957299;29;20538;-65
2022/01/10 05:28:11;;;;;;;34.53;6.35;;;;;;;9.85;48.58;101397.03;4939903;29;20082;-64
2022/01/10 05:30:38;;;;;;;35.35;6.68;;;;;;;9.86;48.94;101400.56;4956967;29;20075;-65
2022/01/10 05:33:03;;;;;;;30.52;6.72;;;;;;;9.88;49.06;101417.38;4956875;29;20031;-66
2022/01/10 05:35:29;;;;;;;21.17;5.93;;;;;;;9.86;48.84;101414.78;4955887;28;20481;-64
2022/01/10 05:37:54;;;;;;;25.80;7.20;;;;;;;9.85;48.71;101420.28;4956968;29;20027;-65
2022/01/10 05:40:20;;;;;;;28.98;7.00;;;;;;;9.86;48.68;101428.16;4956700;29;20143;-66
2022/01/10 05:42:45;;;;;;;28.48;7.00;;;;;;;9.87;48.96;101435.25;4956808;29;20519;-65
2022/01/10 05:45:11;;;;;;;40.55;8.38;;;;;;;9.86;48.95;101427.31;4939436;28;20029;-66
2022/01/10 05:47:41;;;;;;;61.80;8.43;;;;;;;9.87;49.03;101427.22;4956587;29;20034;-65
2022/01/10 05:50:08;;;;;;;46.22;8.35;;;;;;;9.86;49.18;101432.66;4956719;29;20388;-66
2022/01/10 05:52:34;;;;;;;28.73;6.93;;;;;;;9.85;49.18;101437.16;4956368;29;20130;-65
2022/01/10 05:54:59;;;;;;;30.85;7.68;;;;;;;9.87;48.80;101448.63;4956410;29;20523;-65
2022/01/10 05:57:24;;;;;;;36.53;8.25;;;;;;;9.87;49.21;101453.97;4956522;29;20102;-65
2022/01/10 05:59:50;;;;;;;40.10;7.72;;;;;;;9.91;49.29;101458.13;4956372;29;20031;-65
2022/01/10 06:02:15;;;;;;;21.88;8.52;;;;;;;9.92;49.23;101464.34;4956579;29;20031;-65
2022/01/10 06:04:41;;;;;;;34.45;9.68;;;;;;;9.91;49.11;101463.47;4956576;29;20477;-65
2022/01/10 06:07:06;;;;;;;33.97;7.60;;;;;;;9.95;49.54;101475.69;4956205;29;20031;-66
2022/01/10 06:09:32;;;;;;;35.40;8.65;;;;;;;9.97;49.11;101486.25;4956324;29;20042;-65
2022/01/10 06:11:57;;;;;;;57.83;8.57;;;;;;;9.99;48.83;101481.69;4938846;29;20416;-66
2022/01/10 06:14:22;;;;;;;31.65;8.57;;;;;;;10.01;48.96;101473.53;4938973;29;20055;-66
2022/01/10 06:16:48;;;;;;;33.38;8.05;;;;;;;10.03;48.94;101476.94;4956111;29;20031;-65
2022/01/10 06:19:13;;;;;;;47.85;9.88;;;;;;;10.05;49.17;101483.06;4956056;29;20476;-66
2022/01/10 06:21:38;;;;;;;46.42;8.02;;;;;;;10.06;49.12;101484.75;4956084;29;20031;-66
2022/01/10 06:24:04;;;;;;;46.70;8.43;;;;;;;10.04;48.58;101500.94;4956029;29;20114;-65
2022/01/10 06:26:30;;;;;;;27.38;7.53;;;;;;;10.05;48.69;101502.63;4956268;29;20035;-65
2022/01/10 06:28:55;;;;;;;27.88;7.63;;;;;;;10.07;49.20;101494.50;4955912;29;20035;-66
2022/01/10 06:31:20;;;;;;;29.40;10.10;;;;;;;10.10;48.93;101496.97;4939150;29;20078;-66
2022/01/10 06:33:46;;;;;;;28.50;8.05;;;;;;;10.12;48.89;101511.94;4938700;29;20035;-64
2022/01/10 06:36:11;;;;;;;33.88;8.30;;;;;;;10.14;49.46;101511.88;4938746;29;20039;-64
2022/01/10 06:38:36;;;;;;;33.97;10.10;;;;;;;10.14;48.36;101512.72;4955534;29;20062;-65
2022/01/10 06:41:02;;;;;;;39.88;8.85;;;;;;;10.14;48.86;101517.22;4955672;29;20027;-65
2022/01/10 06:43:27;;;;;;;41.20;9.65;;;;;;;10.15;49.42;101527.84;4938594;29;20027;-65
2022/01/10 06:45:53;;;;;;;42.83;9.00;;;;;;;10.16;48.96;101536.72;4955999;28;20031;-64
2022/01/10 06:48:18;;;;;;;30.58;9.23;;;;;;;10.16;49.33;101542.91;4955358;28;20039;-65
2022/01/10 06:50:47;;;;;;;29.95;8.77;;;;;;;10.15;49.40;101543.91;4938197;28;20027;-65
2022/01/10 06:53:14;;;;;;;32.15;7.28;;;;;;;10.13;49.78;101545.84;4955614;29;20038;-66
2022/01/10 06:55:39;;;;;;;22.60;7.35;;;;;;;10.15;49.40;101546.56;4938186;29;20074;-66
2022/01/10 06:58:05;;;;;;;26.67;7.45;;;;;;;10.13;49.29;101553.00;4938216;29;20035;-66
2022/01/10 07:00:30;;;;;;;21.70;7.32;;;;;;;10.15;48.79;101562.63;4955409;29;20035;-64
2022/01/10 07:02:56;;;;;;;32.10;7.43;;;;;;;10.10;49.29;101563.88;4938157;29;20027;-66
2022/01/10 07:05:21;;;;;;;34.80;8.18;;;;;;;10.11;48.98;101573.59;4955342;29;20031;-65
2022/01/10 07:07:47;;;;;;;24.30;7.25;;;;;;;10.08;49.03;101576.53;4955223;29;20074;-64
2022/01/10 07:10:12;;;;;;;22.13;6.90;;;;;;;10.08;48.66;101581.88;4955377;29;20480;-65
2022/01/10 07:12:38;;;;;;;35.40;9.18;;;;;;;10.05;49.49;101590.94;4955264;29;20042;-65
2022/01/10 07:15:04;;;;;;;35.35;7.30;;;;;;;10.01;49.01;101600.19;4955147;29;20412;-65
2022/01/10 07:17:30;;;;;;;26.52;7.18;;;;;;;9.97;49.82;101597.84;4938386;29;20508;-65
2022/01/10 07:19:55;;;;;;;75.95;8.23;;;;;;;9.90;48.87;101600.94;4938125;29;20063;-66
2022/01/10 07:22:21;;;;;;;47.83;7.93;;;;;;;9.90;49.37;101616.97;4955165;29;20039;-66
2022/01/10 07:24:46;;;;;;;52.25;7.90;;;;;;;9.89;49.36;101631.31;4955071;29;20473;-64
2022/01/10 07:27:11;;;;;;;43.78;7.43;;;;;;;9.87;49.34;101627.03;4955195;29;20476;-64
2022/01/10 07:29:37;;;;;;;28.73;6.68;;;;;;;9.85;49.59;101639.66;4955059;29;20042;-65
2022/01/10 07:32:03;;;;;;;29.33;7.45;;;;;;;9.81;49.29;101644.38;4955068;29;20035;-65
2022/01/10 07:34:28;;;;;;;28.25;7.22;;;;;;;9.80;49.25;101650.66;4937854;29;20043;-65
2022/01/10 07:36:53;;;;;;;41.55;7.70;;;;;;;9.79;49.04;101656.13;4937805;29;20387;-65
2022/01/10 07:39:19;;;;;;;71.25;8.05;;;;;;;9.79;49.46;101656.13;4955007;29;20031;-66
2022/01/10 07:41:44;;;;;;;39.97;7.60;;;;;;;9.78;49.28;101674.00;4955176;29;20042;-65
2022/01/10 07:44:10;;;;;;;24.17;6.88;;;;;;;9.77;48.84;101669.59;4954963;29;20441;-66
2022/01/10 07:46:35;;;;;;;45.70;7.00;;;;;;;9.71;49.02;101675.38;4954710;28;20050;-66
2022/01/10 07:49:01;;;;;;;38.90;6.75;;;;;;;9.73;49.31;101686.84;4955141;29;20505;-66
2022/01/10 07:51:26;;;;;;;27.02;7.32;;;;;;;9.72;48.97;101687.78;4954718;29;20114;-66
2022/01/10 07:53:52;;;;;;;19.83;6.50;;;;;;;9.73;49.25;101688.66;4954755;29;20086;-66
2022/01/10 07:56:18;;;;;;;23.00;5.57;;;;;;;9.73;49.64;101694.84;4954822;29;20031;-66
2022/01/10 07:58:43;;;;;;;21.73;7.53;;;;;;;9.76;48.91;101693.78;4954968;28;20400;-65
2022/01/10 08:01:09;;;;;;;38.53;8.63;;;;;;;9.77;49.30;101699.03;4958545;29;20062;-65
2022/01/10 08:03:34;;;;;;;18.25;7.90;;;;;;;9.80;49.51;101706.84;4958495;29;20114;-65
2022/01/10 08:06:00;;;;;;;22.20;7.93;;;;;;;9.83;48.82;101714.66;4958419;29;20043;-66
2022/01/10 08:08:25;;;;;;;26.80;8.02;;;;;;;9.86;49.33;101710.94;4958341;29;20061;-65
2022/01/10 08:10:50;;;;;;;35.60;8.60;;;;;;;9.88;48.73;101717.91;4958223;29;20147;-65
2022/01/10 08:13:16;;;;;;;42.85;9.65;;;;;;;9.91;49.14;101730.22;4956782;29;20370;-66
2022/01/10 08:15:41;;;;;;;49.33;8.70;;;;;;;9.91;49.09;101723.03;4941031;29;20028;-66
2022/01/10 08:18:08;;;;;;;88.63;9.80;;;;;;;9.91;49.20;101731.06;4958165;29;20034;-66
2022/01/10 08:20:33;;;;;;;52.10;9.93;;;;;;;9.90;49.41;101740.06;4958105;29;20035;-65
2022/01/10 08:22:59;;;;;;;50.95;9.18;;;;;;;9.92;49.26;101742.63;4958216;29;20031;-66
2022/01/10 08:25:24;;;;;;;27.75;7.53;;;;;;;9.94;49.26;101746.91;4958089;29;20038;-65
2022/01/10 08:27:50;;;;;;;45.47;8.38;;;;;;;9.94;49.47;101760.31;4957976;29;20066;-65
2022/01/10 08:30:15;;;;;;;66.57;9.02;;;;;;;9.95;49.12;101754.00;4958080;29;20035;-65
2022/01/10 08:32:41;;;;;;;38.20;7.28;;;;;;;9.94;48.81;101757.63;4956514;29;20042;-66
2022/01/10 08:35:07;;;;;;;49.17;6.97;;;;;;;9.93;49.29;101771.13;4957686;29;20032;-65
2022/01/10 08:37:33;;;;;;;64.55;7.43;;;;;;;9.93;49.24;101776.47;4957781;29;20404;-66
2022/01/10 08:39:58;;;;;;;30.88;6.47;;;;;;;9.94;49.05;101781.72;4940737;29;20039;-67
2022/01/10 08:42:26;;;;;;;39.80;7.65;;;;;;;9.95;48.80;101783.44;4957702;29;20034;-66
2022/01/10 08:44:52;;;;;;;28.98;6.20;;;;;;;9.98;48.65;101779.69;4957863;29;20477;-66
2022/01/10 08:47:20;;;;;;;43.10;6.35;;;;;;;9.99;48.66;101786.78;4940700;29;20051;-65
2022/01/10 08:49:45;;;;;;;24.65;6.15;;;;;;;10.02;48.88;101791.06;4957907;29;20039;-66
2022/01/10 08:52:10;;;;;;;19.80;5.65;;;;;;;10.04;49.23;101799.84;4957484;29;20067;-66
2022/01/10 08:54:36;;;;;;;13.98;5.75;;;;;;;10.08;48.87;101799.53;4957391;29;20475;-65
2022/01/10 08:57:02;;;;;;;12.60;5.70;;;;;;;10.13;48.78;101809.97;4957586;29;20492;-65
2022/01/10 08:59:28;;;;;;;19.08;4.80;;;;;;;10.17;48.69;101811.47;4957527;29;20042;-64
2022/01/10 09:01:55;;;;;;;13.15;5.28;;;;;;;10.21;48.61;101815.69;4940489;29;20035;-66
2022/01/10 09:04:20;;;;;;;15.25;5.95;;;;;;;10.29;48.57;101826.72;4957513;29;20032;-65
2022/01/10 09:06:47;;;;;;;18.70;6.43;;;;;;;10.34;48.78;101824.59;4957695;29;20480;-66
2022/01/10 09:09:13;;;;;;;11.38;5.25;;;;;;;10.37;48.31;101835.09;4957495;29;20032;-66
2022/01/10 09:11:40;;;;;;;16.17;5.28;;;;;;;10.41;48.51;101839.31;4940075;29;20499;-66
2022/01/10 09:14:06;;;;;;;11.55;5.95;;;;;;;10.47;48.26;101830.84;4940050;29;20031;-66
2022/01/10 09:16:32;;;;;;;11.60;5.18;;;;;;;10.56;48.34;101840.94;4940257;29;20396;-65
2022/01/10 09:18:57;;;;;;;16.20;6.85;;;;;;;10.65;48.10;101845.66;4957008;29;20039;-65
2022/01/10 09:21:23;;;;;;;18.33;6.00;;;;;;;10.76;48.72;101851.16;4957016;29;20093;-66
2022/01/10 09:23:48;;;;;;;26.45;6.70;;;;;;;10.84;48.37;101854.16;4957021;29;20491;-64
2022/01/10 09:26:13;;;;;;;13.73;5.70;;;;;;;10.94;48.05;101868.63;4957035;29;20444;-66
2022/01/10 09:28:39;;;;;;;12.50;5.95;;;;;;;11.02;48.84;101865.44;4957097;29;20031;-66
2022/01/10 09:31:04;;;;;;;14.70;5.63;;;;;;;11.02;48.03;101870.81;4956890;29;20114;-65
2022/01/10 09:33:30;;;;;;;15.43;5.40;;;;;;;11.05;47.25;101874.09;4956778;29;20053;-66
2022/01/10 09:35:55;;;;;;;12.93;5.57;;;;;;;11.09;48.13;101872.94;4956830;29;20145;-66
2022/01/10 09:38:20;;;;;;;10.77;4.68;;;;;;;11.15;48.17;101870.78;4956848;29;20039;-64
2022/01/10 09:40:46;;;;;;;12.70;5.03;;;;;;;11.20;48.04;101869.50;4956772;29;20035;-66
2022/01/10 09:43:11;;;;;;;15.10;5.30;;;;;;;11.25;48.15;101879.94;4956644;29;20065;-65
2022/01/10 09:45:38;;;;;;;11.65;4.72;;;;;;;11.29;48.34;101874.22;4956724;28;20115;-66
2022/01/10 09:48:04;;;;;;;13.73;4.93;;;;;;;11.33;47.64;101873.06;4939430;29;20070;-65
2022/01/10 09:50:30;;;;;;;14.05;4.82;;;;;;;11.42;47.79;101887.63;4956780;29;20031;-65
2022/01/10 09:52:56;;;;;;;10.95;5.82;;;;;;;11.46;47.48;101886.44;4956290;29;20063;-65
2022/01/10 09:55:22;;;;;;;16.10;5.68;;;;;;;11.57;47.39;101886.53;4939078;29;20042;-65
2022/01/10 09:57:48;;;;;;;15.27;5.82;;;;;;;11.71;47.21;101891.81;4939378;29;20405;-65
2022/01/10 10:00:15;;;;;;;16.40;5.70;;;;;;;11.96;47.08;101897.13;4939238;29;20622;-67
2022/01/10 10:02:41;;;;;;;15.27;5.93;;;;;;;12.40;46.30;101898.34;4939355;29;20031;-66
2022/01/10 10:05:09;;;;;;;11.63;6.68;;;;;;;12.85;46.58;101897.53;4939255;29;20158;-66
2022/01/10 10:07:39;;;;;;;13.32;5.70;;;;;;;13.19;45.77;101901.22;4938794;29;20388;-65
2022/01/10 10:10:11;;;;;;;11.57;5.65;;;;;;;13.57;45.09;101900.91;4955701;29;20031;-66
2022/01/10 10:12:42;;;;;;;15.05;6.03;;;;;;;13.96;46.20;101900.34;4956070;29;20035;-66
2022/01/10 10:15:11;;;;;;;13.30;5.50;;;;;;;14.31;44.71;101903.72;4956176;29;20035;-66
2022/01/10 10:17:37;;;;;;;13.77;5.95;;;;;;;14.63;44.63;101908.31;4939186;29;20396;-66
2022/01/10 10:20:15;;;;;;;14.75;5.70;;;;;;;14.97;44.24;101901.75;4938801;29;20488;-67
2022/01/10 10:22:43;;;;;;;11.07;5.30;;;;;;;15.28;45.40;101903.53;4955613;28;20108;-65
2022/01/10 10:25:09;;;;;;;16.30;5.90;;;;;;;15.59;44.85;101908.00;4956178;29;20384;-65
2022/01/10 10:27:40;;;;;;;13.52;5.07;;;;;;;15.89;44.19;101911.66;4938674;29;20103;-66
2022/01/10 10:30:09;;;;;;;12.00;4.60;;;;;;;16.17;44.83;101911.75;4956295;29;20054;-66
2022/01/10 10:32:35;;;;;;;12.73;5.25;;;;;;;16.44;43.08;101913.81;4956128;29;20503;-66
2022/01/10 10:35:03;;;;;;;12.70;5.38;;;;;;;16.66;43.77;101913.56;4956130;29;20028;-66
2022/01/10 10:37:29;;;;;;;10.23;4.45;;;;;;;16.87;43.56;101918.81;4955609;29;20031;-66
2022/01/10 10:39:55;;;;;;;10.93;4.50;;;;;;;17.07;43.58;101915.09;4956193;29;20131;-66
2022/01/10 10:42:24;;;;;;;12.20;5.25;;;;;;;17.27;43.78;101913.22;4938653;29;20042;-66
2022/01/10 10:44:49;;;;;;;14.85;5.40;;;;;;;17.48;43.13;101916.56;4955593;29;20086;-67
2022/01/10 10:47:17;;;;;;;17.90;4.97;;;;;;;17.66;42.29;101922.97;4956089;28;20437;-66
2022/01/10 10:49:46;;;;;;;9.32;4.30;;;;;;;17.83;42.10;101915.91;4939470;29;20034;-66
2022/01/10 10:52:12;;;;;;;10.45;5.88;;;;;;;17.98;42.56;101926.09;4943476;29;20055;-66
2022/01/10 10:54:39;;;;;;;13.02;5.30;;;;;;;18.14;42.45;101924.63;4954693;29;20066;-67
2022/01/10 10:57:06;;;;;;;10.27;5.00;;;;;;;18.27;42.27;101928.66;4955561;29;20489;-65
2022/01/10 10:59:36;;;;;;;12.32;5.88;;;;;;;18.41;41.95;101933.56;4955705;29;20108;-66
2022/01/10 11:02:02;;;;;;;7.93;4.50;;;;;;;18.54;41.89;101925.94;4954235;29;20027;-66
2022/01/10 11:04:29;;;;;;;13.27;4.70;;;;;;;18.66;41.89;101937.44;4955698;28;20019;-66
2022/01/10 11:06:56;;;;;;;10.30;5.15;;;;;;;18.76;41.23;101943.63;4955396;28;20042;-66
2022/01/10 11:09:21;;;;;;;12.23;5.55;;;;;;;18.85;40.90;101953.56;4955271;29;20046;-66
2022/01/10 11:11:47;;;;;;;11.80;5.00;;;;;;;18.97;41.06;101957.75;4955366;28;20106;-66
2022/01/10 11:14:14;;;;;;;8.02;4.00;;;;;;;19.08;40.85;101962.09;4955226;29;20401;-67
2022/01/10 11:16:41;;;;;;;15.07;4.82;;;;;;;19.13;41.01;101957.03;4954210;29;20031;-67
2022/01/10 11:19:19;;;;;;;8.63;3.75;;;;;;;19.19;40.23;101960.00;4955235;28;20114;-66
2022/01/10 11:22:06;;;;;;;13.05;6.15;;;;;;;19.25;40.26;101972.09;4955401;28;20023;-66
2022/01/10 11:24:42;;;;;;;9.35;4.25;;;;;;;19.30;40.25;101967.03;4955266;29;20078;-65
2022/01/10 11:27:39;;;;;;;11.20;4.35;;;;;;;19.32;40.40;101975.03;4955198;28;20030;-66
2022/01/10 11:30:26;;;;;;;9.88;4.68;;;;;;;19.38;40.73;101966.22;4933912;29;20093;-66